sensor_id;sensor_type;location;lat;lon;timestamp;P1;durP1;ratioP1;P2;durP2;ratioP2
42186;SDS011;27858;51.414;0.018;2023-11-19T00:00:08;24.92;;;8.15;;
42186;SDS011;27858;51.414;0.018;2023-11-19T00:02:39;23.95;;;6.55;;
42186;SDS011;27858;51.414;0.018;2023-11-19T00:05:07;26.10;;;6.15;;
42186;SDS011;27858;51.414;0.018;2023-11-19T00:07:35;25.70;;;5.10;;
42186;SDS011;27858;51.414;0.018;2023-11-19T00:10:03;21.08;;;5.95;;
42186;SDS011;27858;51.414;0.018;2023-11-19T00:12:33;31.25;;;8.57;;
42186;SDS011;27858;51.414;0.018;2023-11-19T00:15:00;19.08;;;5.93;;
42186;SDS011;27858;51.414;0.018;2023-11-19T00:17:27;22.52;;;5.13;;
42186;SDS011;27858;51.414;0.018;2023-11-19T00:19:54;19.40;;;4.18;;
42186;SDS011;27858;51.414;0.018;2023-11-19T00:22:21;17.42;;;5.65;;
42186;SDS011;27858;51.414;0.018;2023-11-19T00:24:48;19.85;;;6.30;;
42186;SDS011;27858;51.414;0.018;2023-11-19T00:27:16;24.20;;;5.82;;
42186;SDS011;27858;51.414;0.018;2023-11-19T00:29:43;19.77;;;6.13;;
42186;SDS011;27858;51.414;0.018;2023-11-19T00:32:11;23.42;;;6.05;;
42186;SDS011;27858;51.414;0.018;2023-11-19T00:34:38;21.70;;;6.82;;
42186;SDS011;27858;51.414;0.018;2023-11-19T00:37:05;16.98;;;5.18;;
42186;SDS011;27858;51.414;0.018;2023-11-19T00:39:33;12.23;;;4.40;;
42186;SDS011;27858;51.414;0.018;2023-11-19T00:41:59;22.75;;;5.85;;
42186;SDS011;27858;51.414;0.018;2023-11-19T00:44:26;27.35;;;6.50;;
42186;SDS011;27858;51.414;0.018;2023-11-19T00:46:53;17.02;;;5.15;;
42186;SDS011;27858;51.414;0.018;2023-11-19T00:49:20;22.45;;;5.93;;
42186;SDS011;27858;51.414;0.018;2023-11-19T00:51:46;29.05;;;5.97;;
42186;SDS011;27858;51.414;0.018;2023-11-19T00:54:13;24.58;;;4.78;;
42186;SDS011;27858;51.414;0.018;2023-11-19T00:56:40;22.58;;;6.28;;
42186;SDS011;27858;51.414;0.018;2023-11-19T00:59:07;19.15;;;5.47;;
42186;SDS011;27858;51.414;0.018;2023-11-19T01:01:34;38.92;;;7.90;;
42186;SDS011;27858;51.414;0.018;2023-11-19T01:04:00;21.42;;;5.22;;
42186;SDS011;27858;51.414;0.018;2023-11-19T01:06:31;28.65;;;7.95;;
42186;SDS011;27858;51.414;0.018;2023-11-19T01:08:58;23.52;;;5.82;;
42186;SDS011;27858;51.414;0.018;2023-11-19T01:11:25;23.85;;;5.80;;
42186;SDS011;27858;51.414;0.018;2023-11-19T01:13:52;27.17;;;6.20;;
42186;SDS011;27858;51.414;0.018;2023-11-19T01:16:19;24.17;;;6.70;;
42186;SDS011;27858;51.414;0.018;2023-11-19T01:18:47;35.67;;;7.18;;
42186;SDS011;27858;51.414;0.018;2023-11-19T01:21:15;24.98;;;6.50;;
42186;SDS011;27858;51.414;0.018;2023-11-19T01:23:42;24.52;;;7.05;;
42186;SDS011;27858;51.414;0.018;2023-11-19T01:26:10;26.73;;;4.97;;
42186;SDS011;27858;51.414;0.018;2023-11-19T01:28:37;24.10;;;5.85;;
42186;SDS011;27858;51.414;0.018;2023-11-19T01:31:17;24.38;;;7.32;;
42186;SDS011;27858;51.414;0.018;2023-11-19T01:33:44;39.97;;;7.28;;
42186;SDS011;27858;51.414;0.018;2023-11-19T01:36:13;25.65;;;5.45;;
42186;SDS011;27858;51.414;0.018;2023-11-19T01:38:40;18.88;;;6.10;;
42186;SDS011;27858;51.414;0.018;2023-11-19T01:41:07;32.95;;;7.95;;
42186;SDS011;27858;51.414;0.018;2023-11-19T01:43:35;31.60;;;5.43;;
42186;SDS011;27858;51.414;0.018;2023-11-19T01:46:04;25.80;;;7.43;;
42186;SDS011;27858;51.414;0.018;2023-11-19T01:48:35;23.52;;;6.50;;
42186;SDS011;27858;51.414;0.018;2023-11-19T01:51:07;23.65;;;5.32;;
42186;SDS011;27858;51.414;0.018;2023-11-19T01:53:36;20.33;;;5.70;;
42186;SDS011;27858;51.414;0.018;2023-11-19T01:56:04;20.13;;;4.07;;
42186;SDS011;27858;51.414;0.018;2023-11-19T01:58:35;23.42;;;5.90;;
42186;SDS011;27858;51.414;0.018;2023-11-19T02:01:03;21.85;;;5.65;;
42186;SDS011;27858;51.414;0.018;2023-11-19T02:03:31;20.55;;;5.25;;
42186;SDS011;27858;51.414;0.018;2023-11-19T02:05:59;33.70;;;7.30;;
42186;SDS011;27858;51.414;0.018;2023-11-19T02:08:26;27.85;;;5.40;;
42186;SDS011;27858;51.414;0.018;2023-11-19T02:10:53;24.30;;;5.50;;
42186;SDS011;27858;51.414;0.018;2023-11-19T02:13:24;19.75;;;5.82;;
42186;SDS011;27858;51.414;0.018;2023-11-19T02:15:51;25.35;;;5.40;;
42186;SDS011;27858;51.414;0.018;2023-11-19T02:18:19;20.42;;;6.18;;
42186;SDS011;27858;51.414;0.018;2023-11-19T02:20:51;20.40;;;5.38;;
42186;SDS011;27858;51.414;0.018;2023-11-19T02:23:18;29.08;;;5.82;;
42186;SDS011;27858;51.414;0.018;2023-11-19T02:28:42;22.52;;;5.28;;
42186;SDS011;27858;51.414;0.018;2023-11-19T02:31:10;17.38;;;5.20;;
42186;SDS011;27858;51.414;0.018;2023-11-19T02:33:38;25.73;;;6.63;;
42186;SDS011;27858;51.414;0.018;2023-11-19T02:36:06;27.27;;;5.50;;
42186;SDS011;27858;51.414;0.018;2023-11-19T02:38:34;21.25;;;4.95;;
42186;SDS011;27858;51.414;0.018;2023-11-19T02:41:05;17.08;;;4.97;;
42186;SDS011;27858;51.414;0.018;2023-11-19T02:43:33;22.33;;;5.45;;
42186;SDS011;27858;51.414;0.018;2023-11-19T02:46:01;25.75;;;5.57;;
42186;SDS011;27858;51.414;0.018;2023-11-19T02:48:41;22.58;;;5.20;;
42186;SDS011;27858;51.414;0.018;2023-11-19T02:51:09;26.75;;;6.50;;
42186;SDS011;27858;51.414;0.018;2023-11-19T02:53:36;18.10;;;5.72;;
42186;SDS011;27858;51.414;0.018;2023-11-19T02:56:03;23.95;;;5.68;;
42186;SDS011;27858;51.414;0.018;2023-11-19T02:58:52;25.55;;;5.45;;
42186;SDS011;27858;51.414;0.018;2023-11-19T03:01:23;24.55;;;6.28;;
42186;SDS011;27858;51.414;0.018;2023-11-19T03:03:57;33.15;;;7.20;;
42186;SDS011;27858;51.414;0.018;2023-11-19T03:06:25;17.63;;;5.22;;
42186;SDS011;27858;51.414;0.018;2023-11-19T03:08:54;24.60;;;4.97;;
42186;SDS011;27858;51.414;0.018;2023-11-19T03:11:21;20.77;;;6.00;;
42186;SDS011;27858;51.414;0.018;2023-11-19T03:13:48;22.58;;;6.35;;
42186;SDS011;27858;51.414;0.018;2023-11-19T03:16:14;16.73;;;5.72;;
42186;SDS011;27858;51.414;0.018;2023-11-19T03:18:43;21.77;;;5.20;;
42186;SDS011;27858;51.414;0.018;2023-11-19T03:21:10;30.65;;;5.68;;
42186;SDS011;27858;51.414;0.018;2023-11-19T03:23:36;23.17;;;5.03;;
42186;SDS011;27858;51.414;0.018;2023-11-19T03:26:03;17.73;;;4.22;;
42186;SDS011;27858;51.414;0.018;2023-11-19T03:28:32;27.95;;;6.28;;
42186;SDS011;27858;51.414;0.018;2023-11-19T03:30:59;17.67;;;4.88;;
42186;SDS011;27858;51.414;0.018;2023-11-19T03:33:26;24.05;;;5.10;;
42186;SDS011;27858;51.414;0.018;2023-11-19T03:35:54;17.98;;;3.55;;
42186;SDS011;27858;51.414;0.018;2023-11-19T03:38:23;25.13;;;4.43;;
42186;SDS011;27858;51.414;0.018;2023-11-19T03:40:51;28.63;;;4.72;;
42186;SDS011;27858;51.414;0.018;2023-11-19T03:43:18;18.70;;;5.43;;
42186;SDS011;27858;51.414;0.018;2023-11-19T03:45:47;16.70;;;4.75;;
42186;SDS011;27858;51.414;0.018;2023-11-19T03:48:14;25.27;;;6.20;;
42186;SDS011;27858;51.414;0.018;2023-11-19T03:50:45;32.55;;;4.85;;
42186;SDS011;27858;51.414;0.018;2023-11-19T03:53:12;25.50;;;5.60;;
42186;SDS011;27858;51.414;0.018;2023-11-19T03:55:38;26.42;;;5.05;;
42186;SDS011;27858;51.414;0.018;2023-11-19T03:58:05;36.28;;;6.13;;
42186;SDS011;27858;51.414;0.018;2023-11-19T04:00:32;28.17;;;5.70;;
42186;SDS011;27858;51.414;0.018;2023-11-19T04:02:59;18.85;;;4.97;;
42186;SDS011;27858;51.414;0.018;2023-11-19T04:05:27;18.70;;;6.53;;
42186;SDS011;27858;51.414;0.018;2023-11-19T04:07:53;19.17;;;5.50;;
42186;SDS011;27858;51.414;0.018;2023-11-19T04:10:20;17.35;;;5.32;;
42186;SDS011;27858;51.414;0.018;2023-11-19T04:12:49;20.92;;;3.40;;
42186;SDS011;27858;51.414;0.018;2023-11-19T04:15:15;20.10;;;4.53;;
42186;SDS011;27858;51.414;0.018;2023-11-19T04:17:42;19.67;;;4.63;;
42186;SDS011;27858;51.414;0.018;2023-11-19T04:20:09;29.63;;;6.30;;
42186;SDS011;27858;51.414;0.018;2023-11-19T04:22:39;20.73;;;5.85;;
42186;SDS011;27858;51.414;0.018;2023-11-19T04:25:07;31.58;;;6.63;;
42186;SDS011;27858;51.414;0.018;2023-11-19T04:27:34;24.13;;;5.45;;
42186;SDS011;27858;51.414;0.018;2023-11-19T04:30:01;21.90;;;4.78;;
42186;SDS011;27858;51.414;0.018;2023-11-19T04:32:29;27.88;;;6.20;;
42186;SDS011;27858;51.414;0.018;2023-11-19T04:34:56;22.98;;;5.57;;
42186;SDS011;27858;51.414;0.018;2023-11-19T04:37:23;19.17;;;5.38;;
42186;SDS011;27858;51.414;0.018;2023-11-19T04:39:50;15.60;;;4.18;;
42186;SDS011;27858;51.414;0.018;2023-11-19T04:42:17;21.48;;;5.70;;
42186;SDS011;27858;51.414;0.018;2023-11-19T04:44:44;16.13;;;5.53;;
42186;SDS011;27858;51.414;0.018;2023-11-19T04:47:11;18.00;;;4.55;;
42186;SDS011;27858;51.414;0.018;2023-11-19T04:49:41;15.88;;;4.60;;
42186;SDS011;27858;51.414;0.018;2023-11-19T04:54:41;20.50;;;5.85;;
42186;SDS011;27858;51.414;0.018;2023-11-19T04:57:09;32.42;;;7.63;;
42186;SDS011;27858;51.414;0.018;2023-11-19T04:59:39;21.35;;;5.57;;
42186;SDS011;27858;51.414;0.018;2023-11-19T05:02:08;16.42;;;4.93;;
42186;SDS011;27858;51.414;0.018;2023-11-19T05:04:35;19.05;;;5.18;;
42186;SDS011;27858;51.414;0.018;2023-11-19T05:07:04;27.23;;;4.25;;
42186;SDS011;27858;51.414;0.018;2023-11-19T05:09:31;25.48;;;7.30;;
42186;SDS011;27858;51.414;0.018;2023-11-19T05:11:57;18.95;;;4.88;;
42186;SDS011;27858;51.414;0.018;2023-11-19T05:14:24;15.15;;;4.43;;
42186;SDS011;27858;51.414;0.018;2023-11-19T05:16:51;25.08;;;5.35;;
42186;SDS011;27858;51.414;0.018;2023-11-19T05:19:18;17.25;;;5.65;;
42186;SDS011;27858;51.414;0.018;2023-11-19T05:21:45;25.90;;;5.72;;
42186;SDS011;27858;51.414;0.018;2023-11-19T05:24:11;12.70;;;4.05;;
42186;SDS011;27858;51.414;0.018;2023-11-19T05:26:38;23.63;;;4.85;;
42186;SDS011;27858;51.414;0.018;2023-11-19T05:29:05;13.43;;;4.43;;
42186;SDS011;27858;51.414;0.018;2023-11-19T05:31:32;21.80;;;5.32;;
42186;SDS011;27858;51.414;0.018;2023-11-19T05:34:02;17.92;;;5.30;;
42186;SDS011;27858;51.414;0.018;2023-11-19T05:36:30;15.05;;;4.70;;
42186;SDS011;27858;51.414;0.018;2023-11-19T05:38:56;16.33;;;3.90;;
42186;SDS011;27858;51.414;0.018;2023-11-19T05:41:23;16.85;;;5.13;;
42186;SDS011;27858;51.414;0.018;2023-11-19T05:43:50;15.05;;;4.88;;
42186;SDS011;27858;51.414;0.018;2023-11-19T05:46:17;34.65;;;5.40;;
42186;SDS011;27858;51.414;0.018;2023-11-19T05:48:46;18.20;;;4.78;;
42186;SDS011;27858;51.414;0.018;2023-11-19T05:51:13;14.00;;;4.40;;
42186;SDS011;27858;51.414;0.018;2023-11-19T05:53:43;18.40;;;4.63;;
42186;SDS011;27858;51.414;0.018;2023-11-19T05:56:12;25.80;;;6.30;;
42186;SDS011;27858;51.414;0.018;2023-11-19T05:58:39;15.95;;;4.85;;
42186;SDS011;27858;51.414;0.018;2023-11-19T06:01:06;14.90;;;4.32;;
42186;SDS011;27858;51.414;0.018;2023-11-19T06:03:34;17.63;;;4.72;;
42186;SDS011;27858;51.414;0.018;2023-11-19T06:06:01;27.52;;;5.40;;
42186;SDS011;27858;51.414;0.018;2023-11-19T06:08:28;16.48;;;4.82;;
42186;SDS011;27858;51.414;0.018;2023-11-19T06:10:55;19.45;;;4.65;;
42186;SDS011;27858;51.414;0.018;2023-11-19T06:13:22;26.20;;;5.00;;
42186;SDS011;27858;51.414;0.018;2023-11-19T06:15:50;22.95;;;5.07;;
42186;SDS011;27858;51.414;0.018;2023-11-19T06:18:17;18.40;;;4.40;;
42186;SDS011;27858;51.414;0.018;2023-11-19T06:20:46;13.35;;;4.18;;
42186;SDS011;27858;51.414;0.018;2023-11-19T06:23:13;25.55;;;6.00;;
42186;SDS011;27858;51.414;0.018;2023-11-19T06:25:40;36.72;;;6.07;;
42186;SDS011;27858;51.414;0.018;2023-11-19T06:28:07;21.50;;;6.45;;
42186;SDS011;27858;51.414;0.018;2023-11-19T06:30:41;18.50;;;4.30;;
42186;SDS011;27858;51.414;0.018;2023-11-19T06:33:07;20.40;;;5.10;;
42186;SDS011;27858;51.414;0.018;2023-11-19T06:35:35;19.80;;;5.45;;
42186;SDS011;27858;51.414;0.018;2023-11-19T06:38:04;12.27;;;3.80;;
42186;SDS011;27858;51.414;0.018;2023-11-19T06:40:32;14.20;;;3.92;;
42186;SDS011;27858;51.414;0.018;2023-11-19T06:43:01;20.25;;;4.85;;
42186;SDS011;27858;51.414;0.018;2023-11-19T06:45:31;13.40;;;5.00;;
42186;SDS011;27858;51.414;0.018;2023-11-19T06:48:00;15.68;;;4.30;;
42186;SDS011;27858;51.414;0.018;2023-11-19T06:50:29;20.15;;;4.75;;
42186;SDS011;27858;51.414;0.018;2023-11-19T06:52:56;15.02;;;3.60;;
42186;SDS011;27858;51.414;0.018;2023-11-19T06:55:23;19.55;;;5.00;;
42186;SDS011;27858;51.414;0.018;2023-11-19T06:57:50;18.65;;;4.53;;
42186;SDS011;27858;51.414;0.018;2023-11-19T07:00:17;26.80;;;4.78;;
42186;SDS011;27858;51.414;0.018;2023-11-19T07:02:44;12.88;;;4.30;;
42186;SDS011;27858;51.414;0.018;2023-11-19T07:05:11;20.08;;;4.80;;
42186;SDS011;27858;51.414;0.018;2023-11-19T07:07:39;19.45;;;4.65;;
42186;SDS011;27858;51.414;0.018;2023-11-19T07:10:07;35.15;;;4.97;;
42186;SDS011;27858;51.414;0.018;2023-11-19T07:12:36;14.32;;;3.83;;
42186;SDS011;27858;51.414;0.018;2023-11-19T07:15:03;12.13;;;3.63;;
42186;SDS011;27858;51.414;0.018;2023-11-19T07:17:31;28.35;;;5.03;;
42186;SDS011;27858;51.414;0.018;2023-11-19T07:19:58;14.05;;;3.95;;
42186;SDS011;27858;51.414;0.018;2023-11-19T07:22:26;19.83;;;4.72;;
42186;SDS011;27858;51.414;0.018;2023-11-19T07:24:55;15.85;;;3.67;;
42186;SDS011;27858;51.414;0.018;2023-11-19T07:27:22;18.63;;;5.15;;
42186;SDS011;27858;51.414;0.018;2023-11-19T07:29:51;15.40;;;3.90;;
42186;SDS011;27858;51.414;0.018;2023-11-19T07:32:18;18.83;;;3.72;;
42186;SDS011;27858;51.414;0.018;2023-11-19T07:34:45;19.33;;;3.38;;
42186;SDS011;27858;51.414;0.018;2023-11-19T07:37:11;10.18;;;3.35;;
42186;SDS011;27858;51.414;0.018;2023-11-19T07:39:38;22.65;;;4.57;;
42186;SDS011;27858;51.414;0.018;2023-11-19T07:42:07;13.15;;;3.15;;
42186;SDS011;27858;51.414;0.018;2023-11-19T07:44:35;13.85;;;4.15;;
42186;SDS011;27858;51.414;0.018;2023-11-19T07:47:03;19.92;;;4.47;;
42186;SDS011;27858;51.414;0.018;2023-11-19T07:49:30;27.20;;;3.50;;
42186;SDS011;27858;51.414;0.018;2023-11-19T07:51:57;12.43;;;3.67;;
42186;SDS011;27858;51.414;0.018;2023-11-19T07:54:24;6.97;;;2.33;;
42186;SDS011;27858;51.414;0.018;2023-11-19T07:56:51;14.82;;;3.70;;
42186;SDS011;27858;51.414;0.018;2023-11-19T07:59:18;12.38;;;3.30;;
42186;SDS011;27858;51.414;0.018;2023-11-19T08:01:45;11.82;;;3.05;;
42186;SDS011;27858;51.414;0.018;2023-11-19T08:04:12;11.45;;;2.92;;
42186;SDS011;27858;51.414;0.018;2023-11-19T08:06:39;13.48;;;2.85;;
42186;SDS011;27858;51.414;0.018;2023-11-19T08:09:06;11.13;;;3.45;;
42186;SDS011;27858;51.414;0.018;2023-11-19T08:11:33;17.02;;;4.25;;
42186;SDS011;27858;51.414;0.018;2023-11-19T08:14:00;9.70;;;2.42;;
42186;SDS011;27858;51.414;0.018;2023-11-19T08:16:27;11.98;;;3.85;;
42186;SDS011;27858;51.414;0.018;2023-11-19T08:18:53;8.80;;;3.83;;
42186;SDS011;27858;51.414;0.018;2023-11-19T08:21:20;17.13;;;4.40;;
42186;SDS011;27858;51.414;0.018;2023-11-19T08:23:49;16.85;;;3.80;;
42186;SDS011;27858;51.414;0.018;2023-11-19T08:26:15;8.30;;;2.65;;
42186;SDS011;27858;51.414;0.018;2023-11-19T08:28:47;7.13;;;2.88;;
42186;SDS011;27858;51.414;0.018;2023-11-19T08:31:14;9.00;;;2.50;;
42186;SDS011;27858;51.414;0.018;2023-11-19T08:33:41;8.32;;;2.20;;
42186;SDS011;27858;51.414;0.018;2023-11-19T08:36:08;8.02;;;3.60;;
42186;SDS011;27858;51.414;0.018;2023-11-19T08:38:35;11.30;;;3.28;;
42186;SDS011;27858;51.414;0.018;2023-11-19T08:41:02;17.17;;;3.40;;
42186;SDS011;27858;51.414;0.018;2023-11-19T08:43:29;19.85;;;3.85;;
42186;SDS011;27858;51.414;0.018;2023-11-19T08:45:58;14.77;;;3.70;;
42186;SDS011;27858;51.414;0.018;2023-11-19T08:48:24;14.13;;;3.75;;
42186;SDS011;27858;51.414;0.018;2023-11-19T08:50:52;10.98;;;2.80;;
42186;SDS011;27858;51.414;0.018;2023-11-19T08:53:19;11.18;;;3.25;;
42186;SDS011;27858;51.414;0.018;2023-11-19T08:55:45;12.75;;;3.85;;
42186;SDS011;27858;51.414;0.018;2023-11-19T08:58:12;10.80;;;3.20;;
42186;SDS011;27858;51.414;0.018;2023-11-19T09:00:39;9.52;;;3.05;;
42186;SDS011;27858;51.414;0.018;2023-11-19T09:03:06;14.30;;;3.58;;
42186;SDS011;27858;51.414;0.018;2023-11-19T09:05:35;6.22;;;2.65;;
42186;SDS011;27858;51.414;0.018;2023-11-19T09:08:03;19.98;;;4.10;;
42186;SDS011;27858;51.414;0.018;2023-11-19T09:10:30;14.05;;;3.47;;
42186;SDS011;27858;51.414;0.018;2023-11-19T09:12:58;9.38;;;3.63;;
42186;SDS011;27858;51.414;0.018;2023-11-19T09:15:24;18.65;;;3.92;;
42186;SDS011;27858;51.414;0.018;2023-11-19T09:17:51;16.55;;;4.38;;
42186;SDS011;27858;51.414;0.018;2023-11-19T09:20:18;10.85;;;4.28;;
42186;SDS011;27858;51.414;0.018;2023-11-19T09:22:45;18.75;;;5.30;;
42186;SDS011;27858;51.414;0.018;2023-11-19T09:25:12;10.93;;;4.15;;
42186;SDS011;27858;51.414;0.018;2023-11-19T09:27:43;19.10;;;4.68;;
42186;SDS011;27858;51.414;0.018;2023-11-19T09:30:10;12.95;;;4.30;;
42186;SDS011;27858;51.414;0.018;2023-11-19T09:32:37;15.15;;;3.22;;
42186;SDS011;27858;51.414;0.018;2023-11-19T09:35:04;15.05;;;4.13;;
42186;SDS011;27858;51.414;0.018;2023-11-19T09:37:32;10.20;;;3.40;;
42186;SDS011;27858;51.414;0.018;2023-11-19T09:39:59;20.27;;;4.18;;
42186;SDS011;27858;51.414;0.018;2023-11-19T09:42:26;19.90;;;4.55;;
42186;SDS011;27858;51.414;0.018;2023-11-19T09:44:53;20.10;;;4.63;;
42186;SDS011;27858;51.414;0.018;2023-11-19T09:47:22;15.88;;;4.53;;
42186;SDS011;27858;51.414;0.018;2023-11-19T09:49:49;17.88;;;5.47;;
42186;SDS011;27858;51.414;0.018;2023-11-19T09:52:16;10.88;;;3.58;;
42186;SDS011;27858;51.414;0.018;2023-11-19T09:54:43;10.75;;;3.30;;
42186;SDS011;27858;51.414;0.018;2023-11-19T09:57:10;17.25;;;4.07;;
42186;SDS011;27858;51.414;0.018;2023-11-19T09:59:39;15.82;;;3.42;;
42186;SDS011;27858;51.414;0.018;2023-11-19T10:02:07;13.02;;;3.78;;
42186;SDS011;27858;51.414;0.018;2023-11-19T10:04:36;14.77;;;4.00;;
42186;SDS011;27858;51.414;0.018;2023-11-19T10:07:04;15.95;;;3.97;;
42186;SDS011;27858;51.414;0.018;2023-11-19T10:09:31;11.80;;;3.17;;
42186;SDS011;27858;51.414;0.018;2023-11-19T10:11:58;9.30;;;3.30;;
42186;SDS011;27858;51.414;0.018;2023-11-19T10:14:25;22.73;;;3.95;;
42186;SDS011;27858;51.414;0.018;2023-11-19T10:16:52;18.23;;;4.32;;
42186;SDS011;27858;51.414;0.018;2023-11-19T10:19:21;14.43;;;4.15;;
42186;SDS011;27858;51.414;0.018;2023-11-19T10:21:48;20.23;;;4.28;;
42186;SDS011;27858;51.414;0.018;2023-11-19T10:24:15;8.75;;;3.67;;
42186;SDS011;27858;51.414;0.018;2023-11-19T10:26:44;23.20;;;5.18;;
42186;SDS011;27858;51.414;0.018;2023-11-19T10:29:12;10.98;;;3.00;;
42186;SDS011;27858;51.414;0.018;2023-11-19T10:31:40;11.98;;;3.92;;
42186;SDS011;27858;51.414;0.018;2023-11-19T10:34:13;14.48;;;4.13;;
42186;SDS011;27858;51.414;0.018;2023-11-19T10:36:53;11.02;;;4.07;;
42186;SDS011;27858;51.414;0.018;2023-11-19T10:39:20;6.90;;;2.50;;
42186;SDS011;27858;51.414;0.018;2023-11-19T10:41:47;14.32;;;3.55;;
42186;SDS011;27858;51.414;0.018;2023-11-19T10:44:33;18.20;;;3.13;;
42186;SDS011;27858;51.414;0.018;2023-11-19T10:47:02;13.10;;;2.60;;
42186;SDS011;27858;51.414;0.018;2023-11-19T10:49:34;11.35;;;2.25;;
42186;SDS011;27858;51.414;0.018;2023-11-19T10:52:01;8.27;;;2.83;;
42186;SDS011;27858;51.414;0.018;2023-11-19T10:54:30;11.18;;;3.03;;
42186;SDS011;27858;51.414;0.018;2023-11-19T10:56:58;9.43;;;2.85;;
42186;SDS011;27858;51.414;0.018;2023-11-19T10:59:30;9.27;;;2.35;;
42186;SDS011;27858;51.414;0.018;2023-11-19T11:02:02;26.50;;;4.07;;
42186;SDS011;27858;51.414;0.018;2023-11-19T11:04:33;9.38;;;2.92;;
42186;SDS011;27858;51.414;0.018;2023-11-19T11:07:06;3.88;;;1.73;;
42186;SDS011;27858;51.414;0.018;2023-11-19T11:09:35;8.52;;;2.83;;
42186;SDS011;27858;51.414;0.018;2023-11-19T11:12:02;7.30;;;2.50;;
42186;SDS011;27858;51.414;0.018;2023-11-19T11:14:32;11.13;;;3.10;;
42186;SDS011;27858;51.414;0.018;2023-11-19T11:17:01;12.00;;;2.45;;
42186;SDS011;27858;51.414;0.018;2023-11-19T11:19:29;10.18;;;2.47;;
42186;SDS011;27858;51.414;0.018;2023-11-19T11:21:56;10.70;;;2.55;;
42186;SDS011;27858;51.414;0.018;2023-11-19T11:27:01;4.72;;;1.88;;
42186;SDS011;27858;51.414;0.018;2023-11-19T11:30:05;8.45;;;2.28;;
42186;SDS011;27858;51.414;0.018;2023-11-19T11:32:49;15.65;;;4.22;;
42186;SDS011;27858;51.414;0.018;2023-11-19T11:35:25;6.20;;;2.58;;
42186;SDS011;27858;51.414;0.018;2023-11-19T11:38:15;14.95;;;3.95;;
42186;SDS011;27858;51.414;0.018;2023-11-19T11:40:43;7.45;;;2.38;;
42186;SDS011;27858;51.414;0.018;2023-11-19T11:43:47;13.18;;;2.85;;
42186;SDS011;27858;51.414;0.018;2023-11-19T11:49:25;11.93;;;2.35;;
42186;SDS011;27858;51.414;0.018;2023-11-19T11:51:59;7.93;;;2.75;;
42186;SDS011;27858;51.414;0.018;2023-11-19T11:54:27;11.13;;;3.15;;
42186;SDS011;27858;51.414;0.018;2023-11-19T12:02:08;9.07;;;3.13;;
42186;SDS011;27858;51.414;0.018;2023-11-19T12:04:36;4.88;;;1.95;;
42186;SDS011;27858;51.414;0.018;2023-11-19T12:07:12;10.98;;;2.35;;
42186;SDS011;27858;51.414;0.018;2023-11-19T12:09:40;4.40;;;1.85;;
42186;SDS011;27858;51.414;0.018;2023-11-19T12:15:03;10.15;;;2.90;;
42186;SDS011;27858;51.414;0.018;2023-11-19T12:20:18;10.80;;;2.20;;
42186;SDS011;27858;51.414;0.018;2023-11-19T12:22:50;9.98;;;2.60;;
42186;SDS011;27858;51.414;0.018;2023-11-19T12:25:17;10.35;;;3.55;;
42186;SDS011;27858;51.414;0.018;2023-11-19T12:27:47;14.02;;;2.95;;
42186;SDS011;27858;51.414;0.018;2023-11-19T12:30:24;10.23;;;2.55;;
42186;SDS011;27858;51.414;0.018;2023-11-19T12:32:53;14.52;;;2.50;;
42186;SDS011;27858;51.414;0.018;2023-11-19T12:35:21;12.02;;;3.10;;
42186;SDS011;27858;51.414;0.018;2023-11-19T12:37:50;8.50;;;3.15;;
42186;SDS011;27858;51.414;0.018;2023-11-19T12:40:22;7.75;;;2.45;;
42186;SDS011;27858;51.414;0.018;2023-11-19T12:42:51;16.93;;;3.43;;
42186;SDS011;27858;51.414;0.018;2023-11-19T12:45:21;9.02;;;2.17;;
42186;SDS011;27858;51.414;0.018;2023-11-19T12:47:50;11.30;;;2.33;;
42186;SDS011;27858;51.414;0.018;2023-11-19T12:50:30;11.95;;;2.88;;
42186;SDS011;27858;51.414;0.018;2023-11-19T12:53:17;7.15;;;2.08;;
42186;SDS011;27858;51.414;0.018;2023-11-19T12:55:44;11.65;;;3.15;;
42186;SDS011;27858;51.414;0.018;2023-11-19T12:58:27;7.60;;;2.95;;
42186;SDS011;27858;51.414;0.018;2023-11-19T13:01:04;9.80;;;3.42;;
42186;SDS011;27858;51.414;0.018;2023-11-19T13:03:36;6.85;;;2.25;;
42186;SDS011;27858;51.414;0.018;2023-11-19T13:06:06;6.85;;;2.25;;
42186;SDS011;27858;51.414;0.018;2023-11-19T13:11:04;8.70;;;2.47;;
42186;SDS011;27858;51.414;0.018;2023-11-19T13:16:21;3.67;;;1.58;;
42186;SDS011;27858;51.414;0.018;2023-11-19T13:18:48;8.88;;;2.60;;
42186;SDS011;27858;51.414;0.018;2023-11-19T13:21:15;7.80;;;2.58;;
42186;SDS011;27858;51.414;0.018;2023-11-19T13:23:43;9.50;;;1.92;;
42186;SDS011;27858;51.414;0.018;2023-11-19T13:26:11;6.28;;;1.83;;
42186;SDS011;27858;51.414;0.018;2023-11-19T13:28:38;8.13;;;2.60;;
42186;SDS011;27858;51.414;0.018;2023-11-19T13:31:05;5.65;;;1.77;;
42186;SDS011;27858;51.414;0.018;2023-11-19T13:33:32;5.93;;;2.55;;
42186;SDS011;27858;51.414;0.018;2023-11-19T13:35:59;5.70;;;2.20;;
42186;SDS011;27858;51.414;0.018;2023-11-19T13:38:32;6.57;;;1.35;;
42186;SDS011;27858;51.414;0.018;2023-11-19T13:40:59;7.18;;;2.60;;
42186;SDS011;27858;51.414;0.018;2023-11-19T13:43:27;3.88;;;1.27;;
42186;SDS011;27858;51.414;0.018;2023-11-19T13:45:54;4.50;;;2.05;;
42186;SDS011;27858;51.414;0.018;2023-11-19T13:48:21;7.00;;;1.67;;
42186;SDS011;27858;51.414;0.018;2023-11-19T13:50:48;10.18;;;1.95;;
42186;SDS011;27858;51.414;0.018;2023-11-19T13:53:16;4.63;;;1.58;;
42186;SDS011;27858;51.414;0.018;2023-11-19T13:55:43;6.32;;;1.92;;
42186;SDS011;27858;51.414;0.018;2023-11-19T13:58:10;5.57;;;2.28;;
42186;SDS011;27858;51.414;0.018;2023-11-19T14:00:37;5.80;;;1.85;;
42186;SDS011;27858;51.414;0.018;2023-11-19T14:03:04;5.63;;;1.73;;
42186;SDS011;27858;51.414;0.018;2023-11-19T14:05:31;8.45;;;2.75;;
42186;SDS011;27858;51.414;0.018;2023-11-19T14:08:01;6.78;;;1.95;;
42186;SDS011;27858;51.414;0.018;2023-11-19T14:10:31;12.27;;;2.50;;
42186;SDS011;27858;51.414;0.018;2023-11-19T14:12:59;13.50;;;2.10;;
42186;SDS011;27858;51.414;0.018;2023-11-19T14:15:25;6.82;;;1.55;;
42186;SDS011;27858;51.414;0.018;2023-11-19T14:17:52;7.10;;;2.53;;
42186;SDS011;27858;51.414;0.018;2023-11-19T14:20:19;5.82;;;1.60;;
42186;SDS011;27858;51.414;0.018;2023-11-19T14:22:46;4.13;;;1.40;;
42186;SDS011;27858;51.414;0.018;2023-11-19T14:25:15;4.65;;;1.48;;
42186;SDS011;27858;51.414;0.018;2023-11-19T14:27:43;6.38;;;2.05;;
42186;SDS011;27858;51.414;0.018;2023-11-19T14:30:11;4.85;;;2.08;;
42186;SDS011;27858;51.414;0.018;2023-11-19T14:32:40;5.68;;;1.88;;
42186;SDS011;27858;51.414;0.018;2023-11-19T14:35:13;4.65;;;1.45;;
42186;SDS011;27858;51.414;0.018;2023-11-19T14:37:40;8.82;;;1.85;;
42186;SDS011;27858;51.414;0.018;2023-11-19T14:40:07;3.90;;;1.50;;
42186;SDS011;27858;51.414;0.018;2023-11-19T14:42:37;4.03;;;1.40;;
42186;SDS011;27858;51.414;0.018;2023-11-19T14:45:07;5.57;;;1.27;;
42186;SDS011;27858;51.414;0.018;2023-11-19T14:47:34;5.75;;;2.40;;
42186;SDS011;27858;51.414;0.018;2023-11-19T14:50:01;2.00;;;1.20;;
42186;SDS011;27858;51.414;0.018;2023-11-19T14:52:29;5.25;;;1.77;;
42186;SDS011;27858;51.414;0.018;2023-11-19T14:54:56;7.78;;;1.33;;
42186;SDS011;27858;51.414;0.018;2023-11-19T14:57:23;6.63;;;1.70;;
42186;SDS011;27858;51.414;0.018;2023-11-19T14:59:49;4.45;;;1.70;;
42186;SDS011;27858;51.414;0.018;2023-11-19T15:02:16;6.15;;;1.30;;
42186;SDS011;27858;51.414;0.018;2023-11-19T15:04:44;3.33;;;1.38;;
42186;SDS011;27858;51.414;0.018;2023-11-19T15:07:11;4.57;;;1.40;;
42186;SDS011;27858;51.414;0.018;2023-11-19T15:09:38;6.85;;;2.00;;
42186;SDS011;27858;51.414;0.018;2023-11-19T15:12:05;4.03;;;1.20;;